sensor_id;sensor_type;location;lat;lon;timestamp;P1;P2;P0
84436;PMS1003;74664;45.620;5.138;2024-02-04T00:02:16;20.75;12.25;7.50
84436;PMS1003;74664;45.620;5.138;2024-02-04T00:04:42;17.00;13.75;8.75
84436;PMS1003;74664;45.620;5.138;2024-02-04T00:07:09;17.00;14.75;10.00
84436;PMS1003;74664;45.620;5.138;2024-02-04T00:09:36;28.75;24.00;16.75
84436;PMS1003;74664;45.620;5.138;2024-02-04T00:12:02;18.50;14.75;9.25
84436;PMS1003;74664;45.620;5.138;2024-02-04T00:14:31;14.75;13.25;7.25
84436;PMS1003;74664;45.620;5.138;2024-02-04T00:16:58;16.25;12.25;9.50
84436;PMS1003;74664;45.620;5.138;2024-02-04T00:19:26;17.50;10.75;7.00
84436;PMS1003;74664;45.620;5.138;2024-02-04T00:21:53;14.25;11.00;8.00
84436;PMS1003;74664;45.620;5.138;2024-02-04T00:24:20;15.25;13.25;9.25
84436;PMS1003;74664;45.620;5.138;2024-02-04T00:26:46;22.00;11.50;8.75
84436;PMS1003;74664;45.620;5.138;2024-02-04T00:29:13;12.25;11.50;9.50
84436;PMS1003;74664;45.620;5.138;2024-02-04T00:31:40;11.50;10.25;7.25
84436;PMS1003;74664;45.620;5.138;2024-02-04T00:34:06;9.25;9.00;5.50
84436;PMS1003;74664;45.620;5.138;2024-02-04T00:36:34;11.25;11.25;7.50
84436;PMS1003;74664;45.620;5.138;2024-02-04T00:39:01;10.75;10.75;7.50
84436;PMS1003;74664;45.620;5.138;2024-02-04T00:41:30;15.75;13.50;7.75
84436;PMS1003;74664;45.620;5.138;2024-02-04T00:43:56;19.25;14.00;9.25
84436;PMS1003;74664;45.620;5.138;2024-02-04T00:46:23;18.00;11.25;7.25
84436;PMS1003;74664;45.620;5.138;2024-02-04T00:48:50;12.75;8.00;5.00
84436;PMS1003;74664;45.620;5.138;2024-02-04T00:51:16;14.75;13.00;8.25
84436;PMS1003;74664;45.620;5.138;2024-02-04T00:53:46;8.00;7.50;5.75
84436;PMS1003;74664;45.620;5.138;2024-02-04T00:56:13;8.75;8.75;6.50
84436;PMS1003;74664;45.620;5.138;2024-02-04T00:58:39;11.00;9.75;5.00
84436;PMS1003;74664;45.620;5.138;2024-02-04T01:01:06;12.75;11.00;7.00
84436;PMS1003;74664;45.620;5.138;2024-02-04T01:03:33;8.50;7.50;5.00
84436;PMS1003;74664;45.620;5.138;2024-02-04T01:05:59;12.00;11.00;7.25
84436;PMS1003;74664;45.620;5.138;2024-02-04T01:08:26;9.75;9.75;7.25
84436;PMS1003;74664;45.620;5.138;2024-02-04T01:10:54;13.50;10.00;7.00
84436;PMS1003;74664;45.620;5.138;2024-02-04T01:13:21;13.25;10.25;7.25
84436;PMS1003;74664;45.620;5.138;2024-02-04T01:15:47;15.50;11.00;6.50
84436;PMS1003;74664;45.620;5.138;2024-02-04T01:18:14;11.00;7.50;5.50
84436;PMS1003;74664;45.620;5.138;2024-02-04T01:20:41;10.25;7.00;5.00
84436;PMS1003;74664;45.620;5.138;2024-02-04T01:23:07;12.00;12.00;8.50
84436;PMS1003;74664;45.620;5.138;2024-02-04T01:25:34;18.25;10.75;8.00
84436;PMS1003;74664;45.620;5.138;2024-02-04T01:28:03;12.75;10.00;7.00
84436;PMS1003;74664;45.620;5.138;2024-02-04T01:30:30;13.50;10.00;7.00
84436;PMS1003;74664;45.620;5.138;2024-02-04T01:32:57;17.75;13.75;9.00
84436;PMS1003;74664;45.620;5.138;2024-02-04T01:35:23;10.50;9.75;7.25
84436;PMS1003;74664;45.620;5.138;2024-02-04T01:37:50;11.50;10.75;7.00
84436;PMS1003;74664;45.620;5.138;2024-02-04T01:40:16;8.00;7.50;5.00
84436;PMS1003;74664;45.620;5.138;2024-02-04T01:42:45;11.50;11.50;8.00
84436;PMS1003;74664;45.620;5.138;2024-02-04T01:45:13;11.00;11.00;8.00
84436;PMS1003;74664;45.620;5.138;2024-02-04T01:47:40;12.00;11.00;6.00
84436;PMS1003;74664;45.620;5.138;2024-02-04T01:50:07;9.50;8.00;5.00
84436;PMS1003;74664;45.620;5.138;2024-02-04T01:52:34;15.25;11.75;7.75
84436;PMS1003;74664;45.620;5.138;2024-02-04T01:55:04;10.25;9.75;7.00
84436;PMS1003;74664;45.620;5.138;2024-02-04T01:57:31;8.75;7.25;4.50
84436;PMS1003;74664;45.620;5.138;2024-02-04T01:59:59;11.25;9.25;5.50
84436;PMS1003;74664;45.620;5.138;2024-02-04T02:02:28;8.00;8.00;5.00
84436;PMS1003;74664;45.620;5.138;2024-02-04T02:04:55;10.00;7.75;4.25
84436;PMS1003;74664;45.620;5.138;2024-02-04T02:07:23;7.75;7.00;4.75
84436;PMS1003;74664;45.620;5.138;2024-02-04T02:09:52;6.50;6.50;4.75
84436;PMS1003;74664;45.620;5.138;2024-02-04T02:12:20;7.50;7.50;5.00
84436;PMS1003;74664;45.620;5.138;2024-02-04T02:14:54;8.50;8.50;6.00
84436;PMS1003;74664;45.620;5.138;2024-02-04T02:17:24;7.25;5.00;4.00
84436;PMS1003;74664;45.620;5.138;2024-02-04T02:19:59;4.75;4.75;4.00
84436;PMS1003;74664;45.620;5.138;2024-02-04T02:22:36;12.50;7.75;5.00
84436;PMS1003;74664;45.620;5.138;2024-02-04T02:25:09;6.75;6.50;5.00
84436;PMS1003;74664;45.620;5.138;2024-02-04T02:27:45;5.50;5.50;4.25
84436;PMS1003;74664;45.620;5.138;2024-02-04T02:30:12;7.50;7.00;4.50
84436;PMS1003;74664;45.620;5.138;2024-02-04T02:32:39;7.00;6.50;4.75
84436;PMS1003;74664;45.620;5.138;2024-02-04T02:35:06;8.00;8.00;5.00
84436;PMS1003;74664;45.620;5.138;2024-02-04T02:37:35;8.75;6.50;4.00
84436;PMS1003;74664;45.620;5.138;2024-02-04T02:40:05;6.00;4.75;4.00
84436;PMS1003;74664;45.620;5.138;2024-02-04T02:42:38;9.25;5.00;4.00
84436;PMS1003;74664;45.620;5.138;2024-02-04T02:45:09;5.00;5.00;4.00
84436;PMS1003;74664;45.620;5.138;2024-02-04T02:47:39;7.00;7.00;4.25
84436;PMS1003;74664;45.620;5.138;2024-02-04T02:50:07;5.00;5.00;4.00
84436;PMS1003;74664;45.620;5.138;2024-02-04T02:52:34;8.25;6.00;4.50
84436;PMS1003;74664;45.620;5.138;2024-02-04T02:55:01;7.25;7.25;5.00
84436;PMS1003;74664;45.620;5.138;2024-02-04T02:57:29;7.75;6.50;4.00
84436;PMS1003;74664;45.620;5.138;2024-02-04T02:59:56;8.00;6.50;4.00
84436;PMS1003;74664;45.620;5.138;2024-02-04T03:02:22;8.00;5.50;4.50
84436;PMS1003;74664;45.620;5.138;2024-02-04T03:04:49;4.00;4.00;4.00
84436;PMS1003;74664;45.620;5.138;2024-02-04T03:07:16;4.75;4.75;4.50
84436;PMS1003;74664;45.620;5.138;2024-02-04T03:09:42;12.00;10.00;5.00
84436;PMS1003;74664;45.620;5.138;2024-02-04T03:12:09;3.00;3.00;2.00
84436;PMS1003;74664;45.620;5.138;2024-02-04T03:14:37;9.00;9.00;5.00
84436;PMS1003;74664;45.620;5.138;2024-02-04T03:17:04;7.25;5.00;4.00
84436;PMS1003;74664;45.620;5.138;2024-02-04T03:19:31;6.50;6.50;4.00
84436;PMS1003;74664;45.620;5.138;2024-02-04T03:21:58;8.00;7.50;5.50
84436;PMS1003;74664;45.620;5.138;2024-02-04T03:24:24;6.75;5.00;4.00
84436;PMS1003;74664;45.620;5.138;2024-02-04T03:26:51;4.00;4.00;4.00
84436;PMS1003;74664;45.620;5.138;2024-02-04T03:29:17;6.75;5.50;5.00
84436;PMS1003;74664;45.620;5.138;2024-02-04T03:31:45;6.50;4.25;3.50
84436;PMS1003;74664;45.620;5.138;2024-02-04T03:34:12;2.00;2.00;1.50
84436;PMS1003;74664;45.620;5.138;2024-02-04T03:36:39;5.00;2.50;2.50
84436;PMS1003;74664;45.620;5.138;2024-02-04T03:39:05;5.00;2.50;1.00
84436;PMS1003;74664;45.620;5.138;2024-02-04T03:41:32;7.00;6.50;4.25
84436;PMS1003;74664;45.620;5.138;2024-02-04T03:43:59;4.50;4.00;2.00
84436;PMS1003;74664;45.620;5.138;2024-02-04T03:46:25;4.50;2.00;2.00
84436;PMS1003;74664;45.620;5.138;2024-02-04T03:48:53;6.75;4.50;4.00
84436;PMS1003;74664;45.620;5.138;2024-02-04T03:51:20;8.25;6.00;4.25
84436;PMS1003;74664;45.620;5.138;2024-02-04T03:53:47;3.25;3.00;1.50
84436;PMS1003;74664;45.620;5.138;2024-02-04T03:56:14;5.00;4.75;2.00
84436;PMS1003;74664;45.620;5.138;2024-02-04T03:58:41;5.50;5.50;4.50
84436;PMS1003;74664;45.620;5.138;2024-02-04T04:01:09;7.50;5.00;4.00
84436;PMS1003;74664;45.620;5.138;2024-02-04T04:03:36;7.75;2.00;1.25
84436;PMS1003;74664;45.620;5.138;2024-02-04T04:06:06;7.00;5.00;3.50
84436;PMS1003;74664;45.620;5.138;2024-02-04T04:08:33;4.50;2.50;1.75
84436;PMS1003;74664;45.620;5.138;2024-02-04T04:11:00;2.00;2.00;2.00
84436;PMS1003;74664;45.620;5.138;2024-02-04T04:13:27;6.50;4.00;2.00
84436;PMS1003;74664;45.620;5.138;2024-02-04T04:15:54;5.25;5.25;4.00
84436;PMS1003;74664;45.620;5.138;2024-02-04T04:18:21;5.25;5.25;3.50
84436;PMS1003;74664;45.620;5.138;2024-02-04T04:20:48;4.75;3.50;1.75
84436;PMS1003;74664;45.620;5.138;2024-02-04T04:23:16;7.00;5.00;4.00
84436;PMS1003;74664;45.620;5.138;2024-02-04T04:25:42;7.75;5.00;4.00
84436;PMS1003;74664;45.620;5.138;2024-02-04T04:28:09;2.00;2.00;1.50
84436;PMS1003;74664;45.620;5.138;2024-02-04T04:30:36;4.00;4.00;2.00
84436;PMS1003;74664;45.620;5.138;2024-02-04T04:33:03;2.75;2.75;1.25
84436;PMS1003;74664;45.620;5.138;2024-02-04T04:35:31;2.00;2.00;2.00
84436;PMS1003;74664;45.620;5.138;2024-02-04T04:37:58;6.50;4.00;4.00
84436;PMS1003;74664;45.620;5.138;2024-02-04T04:40:26;1.75;1.75;1.00
84436;PMS1003;74664;45.620;5.138;2024-02-04T04:42:53;4.00;4.00;2.00
84436;PMS1003;74664;45.620;5.138;2024-02-04T04:45:19;4.00;4.00;2.00
84436;PMS1003;74664;45.620;5.138;2024-02-04T04:47:46;2.50;2.50;1.00
84436;PMS1003;74664;45.620;5.138;2024-02-04T04:50:13;4.50;3.00;1.75
84436;PMS1003;74664;45.620;5.138;2024-02-04T04:52:40;3.25;1.25;1.25
84436;PMS1003;74664;45.620;5.138;2024-02-04T04:55:07;5.00;5.00;2.50
84436;PMS1003;74664;45.620;5.138;2024-02-04T04:57:36;3.00;3.00;2.00
84436;PMS1003;74664;45.620;5.138;2024-02-04T05:00:03;5.00;4.00;1.75
84436;PMS1003;74664;45.620;5.138;2024-02-04T05:02:32;1.25;1.25;1.00
84436;PMS1003;74664;45.620;5.138;2024-02-04T05:04:58;1.75;1.75;1.00
84436;PMS1003;74664;45.620;5.138;2024-02-04T05:07:25;2.00;2.00;2.00
84436;PMS1003;74664;45.620;5.138;2024-02-04T05:09:52;2.00;2.00;1.00
84436;PMS1003;74664;45.620;5.138;2024-02-04T05:12:18;3.25;1.50;1.00
84436;PMS1003;74664;45.620;5.138;2024-02-04T05:14:46;1.00;1.00;0.25
84436;PMS1003;74664;45.620;5.138;2024-02-04T05:17:13;2.00;2.00;1.00
84436;PMS1003;74664;45.620;5.138;2024-02-04T05:19:40;2.75;0.50;0.00
84436;PMS1003;74664;45.620;5.138;2024-02-04T05:22:07;1.00;1.00;1.00
84436;PMS1003;74664;45.620;5.138;2024-02-04T05:24:34;4.00;2.50;1.00
84436;PMS1003;74664;45.620;5.138;2024-02-04T05:27:00;1.00;1.00;1.00
84436;PMS1003;74664;45.620;5.138;2024-02-04T05:29:27;5.50;3.50;1.50
84436;PMS1003;74664;45.620;5.138;2024-02-04T05:31:55;2.25;2.25;1.75
84436;PMS1003;74664;45.620;5.138;2024-02-04T05:34:21;4.50;2.00;2.00
84436;PMS1003;74664;45.620;5.138;2024-02-04T05:36:49;4.00;2.00;2.00
84436;PMS1003;74664;45.620;5.138;2024-02-04T05:39:16;2.00;2.00;2.00
84436;PMS1003;74664;45.620;5.138;2024-02-04T05:41:43;2.50;2.00;1.00
84436;PMS1003;74664;45.620;5.138;2024-02-04T05:44:09;2.00;2.00;1.50
84436;PMS1003;74664;45.620;5.138;2024-02-04T05:46:36;3.75;1.25;1.00
84436;PMS1003;74664;45.620;5.138;2024-02-04T05:49:04;2.00;2.00;2.00
84436;PMS1003;74664;45.620;5.138;2024-02-04T05:51:32;2.00;2.00;1.00
84436;PMS1003;74664;45.620;5.138;2024-02-04T05:54:05;4.25;4.25;2.50
84436;PMS1003;74664;45.620;5.138;2024-02-04T05:56:32;5.50;5.50;4.00
84436;PMS1003;74664;45.620;5.138;2024-02-04T05:58:58;3.50;3.50;2.50
84436;PMS1003;74664;45.620;5.138;2024-02-04T06:01:25;2.00;2.00;2.00
84436;PMS1003;74664;45.620;5.138;2024-02-04T06:03:52;4.00;4.00;2.50
84436;PMS1003;74664;45.620;5.138;2024-02-04T06:06:20;7.25;2.00;1.75
84436;PMS1003;74664;45.620;5.138;2024-02-04T06:08:46;5.50;3.50;2.50
84436;PMS1003;74664;45.620;5.138;2024-02-04T06:11:14;2.50;2.00;2.00
84436;PMS1003;74664;45.620;5.138;2024-02-04T06:13:42;3.00;2.00;1.75
84436;PMS1003;74664;45.620;5.138;2024-02-04T06:16:09;3.00;3.00;2.00
84436;PMS1003;74664;45.620;5.138;2024-02-04T06:18:37;4.00;4.00;1.50
84436;PMS1003;74664;45.620;5.138;2024-02-04T06:21:04;2.00;2.00;2.00
84436;PMS1003;74664;45.620;5.138;2024-02-04T06:23:32;1.00;1.00;1.00
84436;PMS1003;74664;45.620;5.138;2024-02-04T06:25:59;7.00;3.00;2.00
84436;PMS1003;74664;45.620;5.138;2024-02-04T06:28:26;1.00;1.00;0.50
84436;PMS1003;74664;45.620;5.138;2024-02-04T06:30:53;1.75;1.75;1.50
84436;PMS1003;74664;45.620;5.138;2024-02-04T06:33:19;1.00;1.00;1.00
84436;PMS1003;74664;45.620;5.138;2024-02-04T06:35:47;4.00;1.00;1.00
84436;PMS1003;74664;45.620;5.138;2024-02-04T06:38:14;1.25;1.25;1.00
84436;PMS1003;74664;45.620;5.138;2024-02-04T06:40:42;6.00;3.00;1.50
84436;PMS1003;74664;45.620;5.138;2024-02-04T06:43:09;4.00;4.00;3.00
84436;PMS1003;74664;45.620;5.138;2024-02-04T06:45:35;2.50;2.50;2.00
84436;PMS1003;74664;45.620;5.138;2024-02-04T06:48:02;4.00;4.00;2.00
84436;PMS1003;74664;45.620;5.138;2024-02-04T06:50:29;4.00;4.00;3.00
84436;PMS1003;74664;45.620;5.138;2024-02-04T06:52:56;4.50;4.50;3.00
84436;PMS1003;74664;45.620;5.138;2024-02-04T06:55:22;3.50;3.50;2.00
84436;PMS1003;74664;45.620;5.138;2024-02-04T06:57:50;3.00;3.00;1.75
84436;PMS1003;74664;45.620;5.138;2024-02-04T07:00:17;3.50;3.00;1.75
84436;PMS1003;74664;45.620;5.138;2024-02-04T07:02:44;5.50;4.00;2.00
84436;PMS1003;74664;45.620;5.138;2024-02-04T07:05:10;4.25;4.25;2.00
84436;PMS1003;74664;45.620;5.138;2024-02-04T07:07:37;10.75;7.00;5.00
84436;PMS1003;74664;45.620;5.138;2024-02-04T07:10:04;9.00;8.50;7.00
84436;PMS1003;74664;45.620;5.138;2024-02-04T07:12:32;8.25;6.00;4.00
84436;PMS1003;74664;45.620;5.138;2024-02-04T07:15:00;6.50;4.50;3.00
84436;PMS1003;74664;45.620;5.138;2024-02-04T07:17:27;5.75;2.50;1.25
84436;PMS1003;74664;45.620;5.138;2024-02-04T07:19:53;2.00;2.00;2.00
84436;PMS1003;74664;45.620;5.138;2024-02-04T07:22:20;4.75;3.00;2.00
84436;PMS1003;74664;45.620;5.138;2024-02-04T07:24:47;6.00;6.00;4.50
84436;PMS1003;74664;45.620;5.138;2024-02-04T07:27:13;9.00;7.00;4.50
84436;PMS1003;74664;45.620;5.138;2024-02-04T07:29:40;5.00;5.00;4.00
84436;PMS1003;74664;45.620;5.138;2024-02-04T07:32:08;3.50;3.50;2.00
84436;PMS1003;74664;45.620;5.138;2024-02-04T07:34:35;8.00;5.00;4.00
84436;PMS1003;74664;45.620;5.138;2024-02-04T07:37:02;2.50;2.50;1.75
84436;PMS1003;74664;45.620;5.138;2024-02-04T07:39:29;5.00;2.50;2.00
84436;PMS1003;74664;45.620;5.138;2024-02-04T07:41:56;4.00;4.00;2.00
84436;PMS1003;74664;45.620;5.138;2024-02-04T07:44:25;3.50;3.50;2.00
84436;PMS1003;74664;45.620;5.138;2024-02-04T07:46:52;5.00;2.50;2.00
84436;PMS1003;74664;45.620;5.138;2024-02-04T07:49:20;4.25;3.50;2.00
84436;PMS1003;74664;45.620;5.138;2024-02-04T07:51:46;4.00;4.00;2.00
84436;PMS1003;74664;45.620;5.138;2024-02-04T07:54:13;4.50;4.25;2.00
84436;PMS1003;74664;45.620;5.138;2024-02-04T07:56:40;6.00;5.50;4.00
84436;PMS1003;74664;45.620;5.138;2024-02-04T07:59:06;7.50;6.00;4.50
84436;PMS1003;74664;45.620;5.138;2024-02-04T08:01:33;7.50;6.00;4.75
84436;PMS1003;74664;45.620;5.138;2024-02-04T08:03:59;3.00;3.00;1.50
84436;PMS1003;74664;45.620;5.138;2024-02-04T08:06:28;9.00;8.50;5.50
84436;PMS1003;74664;45.620;5.138;2024-02-04T08:08:55;9.75;3.50;2.00
84436;PMS1003;74664;45.620;5.138;2024-02-04T08:11:21;4.00;4.00;2.00
84436;PMS1003;74664;45.620;5.138;2024-02-04T08:13:48;8.75;7.00;6.50
84436;PMS1003;74664;45.620;5.138;2024-02-04T08:16:15;4.00;4.00;2.00
84436;PMS1003;74664;45.620;5.138;2024-02-04T08:18:41;5.00;5.00;4.00
84436;PMS1003;74664;45.620;5.138;2024-02-04T08:21:08;2.00;2.00;1.00
84436;PMS1003;74664;45.620;5.138;2024-02-04T08:23:36;4.00;2.00;1.50
84436;PMS1003;74664;45.620;5.138;2024-02-04T08:26:04;4.50;4.50;4.00
84436;PMS1003;74664;45.620;5.138;2024-02-04T08:28:31;4.75;2.00;2.00
84436;PMS1003;74664;45.620;5.138;2024-02-04T08:30:58;2.00;2.00;1.25
84436;PMS1003;74664;45.620;5.138;2024-02-04T08:33:24;7.00;4.00;3.50
84436;PMS1003;74664;45.620;5.138;2024-02-04T08:35:51;2.50;2.00;1.75
84436;PMS1003;74664;45.620;5.138;2024-02-04T08:38:21;6.50;4.25;2.50
84436;PMS1003;74664;45.620;5.138;2024-02-04T08:40:49;4.00;4.00;1.50
84436;PMS1003;74664;45.620;5.138;2024-02-04T08:43:16;3.00;3.00;2.00
84436;PMS1003;74664;45.620;5.138;2024-02-04T08:45:42;6.75;3.50;2.50
84436;PMS1003;74664;45.620;5.138;2024-02-04T08:48:09;3.50;3.50;3.50
84436;PMS1003;74664;45.620;5.138;2024-02-04T08:50:36;7.75;5.00;4.00
84436;PMS1003;74664;45.620;5.138;2024-02-04T08:53:02;4.00;4.00;2.00
84436;PMS1003;74664;45.620;5.138;2024-02-04T08:55:29;5.00;5.00;3.50
84436;PMS1003;74664;45.620;5.138;2024-02-04T08:57:57;11.75;8.00;6.00
84436;PMS1003;74664;45.620;5.138;2024-02-04T09:00:24;4.25;4.00;2.00
84436;PMS1003;74664;45.620;5.138;2024-02-04T09:02:50;5.50;5.50;4.00
84436;PMS1003;74664;45.620;5.138;2024-02-04T09:05:17;4.75;2.00;2.00
84436;PMS1003;74664;45.620;5.138;2024-02-04T09:07:45;4.75;1.75;1.75
84436;PMS1003;74664;45.620;5.138;2024-02-04T09:10:12;5.00;2.50;2.00
84436;PMS1003;74664;45.620;5.138;2024-02-04T09:12:38;3.50;3.50;1.25
84436;PMS1003;74664;45.620;5.138;2024-02-04T09:15:07;2.00;2.00;2.00
84436;PMS1003;74664;45.620;5.138;2024-02-04T09:17:34;2.00;1.75;1.50
84436;PMS1003;74664;45.620;5.138;2024-02-04T09:20:01;4.50;4.00;2.00
84436;PMS1003;74664;45.620;5.138;2024-02-04T09:22:29;4.00;3.00;1.75
84436;PMS1003;74664;45.620;5.138;2024-02-04T09:24:55;4.00;4.00;2.00
84436;PMS1003;74664;45.620;5.138;2024-02-04T09:27:22;7.00;2.00;1.50
84436;PMS1003;74664;45.620;5.138;2024-02-04T09:29:49;4.25;4.25;2.00
84436;PMS1003;74664;45.620;5.138;2024-02-04T09:32:17;2.50;2.50;1.00
84436;PMS1003;74664;45.620;5.138;2024-02-04T09:34:43;3.00;1.75;1.25
84436;PMS1003;74664;45.620;5.138;2024-02-04T09:37:10;5.00;2.00;1.75
84436;PMS1003;74664;45.620;5.138;2024-02-04T09:39:37;4.00;4.00;1.75
84436;PMS1003;74664;45.620;5.138;2024-02-04T09:42:04;4.00;4.00;2.00
84436;PMS1003;74664;45.620;5.138;2024-02-04T09:44:30;1.75;1.75;1.50
84436;PMS1003;74664;45.620;5.138;2024-02-04T09:46:58;5.00;1.00;1.00
84436;PMS1003;74664;45.620;5.138;2024-02-04T09:49:27;3.50;3.50;2.50
84436;PMS1003;74664;45.620;5.138;2024-02-04T09:51:57;5.00;1.00;1.00
84436;PMS1003;74664;45.620;5.138;2024-02-04T09:54:26;6.50;2.00;2.00
84436;PMS1003;74664;45.620;5.138;2024-02-04T09:56:55;3.50;2.00;1.00
84436;PMS1003;74664;45.620;5.138;2024-02-04T09:59:22;1.25;1.25;0.75
84436;PMS1003;74664;45.620;5.138;2024-02-04T10:01:51;3.25;2.50;1.25
84436;PMS1003;74664;45.620;5.138;2024-02-04T10:04:19;2.00;2.00;1.00
84436;PMS1003;74664;45.620;5.138;2024-02-04T10:06:47;3.50;1.00;1.00
84436;PMS1003;74664;45.620;5.138;2024-02-04T10:09:13;2.00;2.00;1.25
84436;PMS1003;74664;45.620;5.138;2024-02-04T10:11:40;1.50;1.00;1.00
84436;PMS1003;74664;45.620;5.138;2024-02-04T10:14:07;1.00;1.00;0.75
84436;PMS1003;74664;45.620;5.138;2024-02-04T10:16:35;1.00;1.00;1.00
84436;PMS1003;74664;45.620;5.138;2024-02-04T10:19:02;3.50;3.50;1.75
84436;PMS1003;74664;45.620;5.138;2024-02-04T10:21:28;5.00;2.00;1.50
84436;PMS1003;74664;45.620;5.138;2024-02-04T10:23:57;2.00;2.00;1.50
84436;PMS1003;74664;45.620;5.138;2024-02-04T10:26:24;2.00;1.75;0.00
84436;PMS1003;74664;45.620;5.138;2024-02-04T10:28:57;4.50;1.00;0.75
84436;PMS1003;74664;45.620;5.138;2024-02-04T10:31:24;2.75;2.00;1.75
84436;PMS1003;74664;45.620;5.138;2024-02-04T10:33:52;1.50;0.75;0.00
84436;PMS1003;74664;45.620;5.138;2024-02-04T10:36:19;2.00;2.00;1.00
84436;PMS1003;74664;45.620;5.138;2024-02-04T10:38:45;4.00;3.50;2.00
84436;PMS1003;74664;45.620;5.138;2024-02-04T10:41:14;1.00;1.00;0.00
84436;PMS1003;74664;45.620;5.138;2024-02-04T10:43:42;2.00;2.00;2.00
84436;PMS1003;74664;45.620;5.138;2024-02-04T10:46:11;2.00;2.00;1.50
84436;PMS1003;74664;45.620;5.138;2024-02-04T10:48:43;2.00;2.00;1.50
84436;PMS1003;74664;45.620;5.138;2024-02-04T10:51:15;2.50;2.50;1.50
84436;PMS1003;74664;45.620;5.138;2024-02-04T10:53:43;1.00;1.00;1.00
84436;PMS1003;74664;45.620;5.138;2024-02-04T10:56:18;2.50;2.50;2.00
84436;PMS1003;74664;45.620;5.138;2024-02-04T10:58:48;2.00;2.00;1.00
84436;PMS1003;74664;45.620;5.138;2024-02-04T11:01:15;5.00;4.00;2.00
84436;PMS1003;74664;45.620;5.138;2024-02-04T11:03:43;7.75;4.25;2.50
84436;PMS1003;74664;45.620;5.138;2024-02-04T11:06:11;7.50;5.00;4.00
84436;PMS1003;74664;45.620;5.138;2024-02-04T11:08:39;7.50;7.50;4.00
84436;PMS1003;74664;45.620;5.138;2024-02-04T11:11:06;11.25;8.75;6.00
84436;PMS1003;74664;45.620;5.138;2024-02-04T11:13:34;10.25;6.00;5.00
84436;PMS1003;74664;45.620;5.138;2024-02-04T11:16:04;7.00;5.00;4.00
84436;PMS1003;74664;45.620;5.138;2024-02-04T11:18:47;5.00;5.00;4.00
84436;PMS1003;74664;45.620;5.138;2024-02-04T11:24:21;7.25;7.25;4.75
84436;PMS1003;74664;45.620;5.138;2024-02-04T11:27:02;4.00;1.00;0.75
84436;PMS1003;74664;45.620;5.138;2024-02-04T11:29:33;2.00;1.00;1.00
84436;PMS1003;74664;45.620;5.138;2024-02-04T11:32:05;2.00;2.00;1.75
84436;PMS1003;74664;45.620;5.138;2024-02-04T11:34:32;2.00;2.00;1.75
84436;PMS1003;74664;45.620;5.138;2024-02-04T11:36:59;2.00;2.00;1.50
84436;PMS1003;74664;45.620;5.138;2024-02-04T11:39:26;7.00;7.00;4.75
84436;PMS1003;74664;45.620;5.138;2024-02-04T11:41:53;4.75;4.75;3.00
84436;PMS1003;74664;45.620;5.138;2024-02-04T11:44:20;4.00;1.75;1.00
84436;PMS1003;74664;45.620;5.138;2024-02-04T11:46:49;4.75;3.50;2.00
84436;PMS1003;74664;45.620;5.138;2024-02-04T11:49:17;6.00;6.00;4.50
84436;PMS1003;74664;45.620;5.138;2024-02-04T11:51:50;9.25;7.00;5.00
84436;PMS1003;74664;45.620;5.138;2024-02-04T11:54:20;8.75;7.25;4.50
84436;PMS1003;74664;45.620;5.138;2024-02-04T11:56:50;1.50;1.50;1.00
84436;PMS1003;74664;45.620;5.138;2024-02-04T11:59:19;4.25;4.00;2.00
84436;PMS1003;74664;45.620;5.138;2024-02-04T12:01:49;7.50;4.50;3.50
84436;PMS1003;74664;45.620;5.138;2024-02-04T12:04:16;9.25;8.00;5.00
84436;PMS1003;74664;45.620;5.138;2024-02-04T12:06:45;13.25;11.00;7.00
84436;PMS1003;74664;45.620;5.138;2024-02-04T12:09:15;12.25;10.00;6.00
84436;PMS1003;74664;45.620;5.138;2024-02-04T12:11:43;5.25;5.25;4.25
84436;PMS1003;74664;45.620;5.138;2024-02-04T12:14:10;4.75;4.75;3.00
84436;PMS1003;74664;45.620;5.138;2024-02-04T12:16:37;5.00;4.50;4.00
84436;PMS1003;74664;45.620;5.138;2024-02-04T12:19:06;4.25;4.00;2.00
84436;PMS1003;74664;45.620;5.138;2024-02-04T12:21:33;4.25;4.25;3.50
84436;PMS1003;74664;45.620;5.138;2024-02-04T12:24:01;2.00;2.00;1.50
84436;PMS1003;74664;45.620;5.138;2024-02-04T12:26:28;4.00;4.00;2.00
84436;PMS1003;74664;45.620;5.138;2024-02-04T12:28:54;4.25;2.00;1.75
84436;PMS1003;74664;45.620;5.138;2024-02-04T12:31:24;7.25;7.25;5.25
84436;PMS1003;74664;45.620;5.138;2024-02-04T12:33:53;4.50;4.50;4.00
84436;PMS1003;74664;45.620;5.138;2024-02-04T12:36:24;13.25;11.50;8.75
84436;PMS1003;74664;45.620;5.138;2024-02-04T12:38:52;6.75;5.00;4.00
84436;PMS1003;74664;45.620;5.138;2024-02-04T12:41:20;2.00;2.00;1.00
84436;PMS1003;74664;45.620;5.138;2024-02-04T12:43:50;4.50;1.75;1.75
84436;PMS1003;74664;45.620;5.138;2024-02-04T12:46:18;11.00;7.75;5.00
84436;PMS1003;74664;45.620;5.138;2024-02-04T12:48:45;5.75;5.75;4.00
84436;PMS1003;74664;45.620;5.138;2024-02-04T12:51:25;2.00;2.00;1.75
84436;PMS1003;74664;45.620;5.138;2024-02-04T12:54:04;4.25;4.25;2.50
84436;PMS1003;74664;45.620;5.138;2024-02-04T12:56:46;5.75;3.00;2.00
84436;PMS1003;74664;45.620;5.138;2024-02-04T12:59:24;1.00;1.00;1.00
84436;PMS1003;74664;45.620;5.138;2024-02-04T13:01:54;2.50;2.50;2.00
84436;PMS1003;74664;45.620;5.138;2024-02-04T13:04:23;7.75;5.00;4.00
84436;PMS1003;74664;45.620;5.138;2024-02-04T13:06:53;4.50;2.50;1.50
84436;PMS1003;74664;45.620;5.138;2024-02-04T13:09:20;7.00;7.00;5.00
84436;PMS1003;74664;45.620;5.138;2024-02-04T13:11:48;6.25;6.25;4.00
84436;PMS1003;74664;45.620;5.138;2024-02-04T13:14:14;8.75;7.00;5.25
84436;PMS1003;74664;45.620;5.138;2024-02-04T13:16:41;6.00;4.75;4.00
84436;PMS1003;74664;45.620;5.138;2024-02-04T13:19:10;4.00;4.00;3.00
84436;PMS1003;74664;45.620;5.138;2024-02-04T13:21:37;5.00;5.00;4.50
84436;PMS1003;74664;45.620;5.138;2024-02-04T13:24:05;4.75;4.75;4.00
84436;PMS1003;74664;45.620;5.138;2024-02-04T13:26:32;2.50;2.50;2.00
84436;PMS1003;74664;45.620;5.138;2024-02-04T13:28:58;4.25;4.25;2.00
84436;PMS1003;74664;45.620;5.138;2024-02-04T13:31:27;3.00;3.00;1.50
84436;PMS1003;74664;45.620;5.138;2024-02-04T13:33:54;1.00;1.00;1.00
84436;PMS1003;74664;45.620;5.138;2024-02-04T13:36:21;2.00;2.00;2.00
84436;PMS1003;74664;45.620;5.138;2024-02-04T13:38:48;3.50;3.50;2.00
84436;PMS1003;74664;45.620;5.138;2024-02-04T13:41:17;6.50;6.00;5.00
84436;PMS1003;74664;45.620;5.138;2024-02-04T13:43:43;1.50;0.00;0.00
84436;PMS1003;74664;45.620;5.138;2024-02-04T13:46:10;2.25;1.50;1.00
84436;PMS1003;74664;45.620;5.138;2024-02-04T13:48:37;11.50;11.50;8.75
84436;PMS1003;74664;45.620;5.138;2024-02-04T13:51:03;4.75;4.25;4.00
84436;PMS1003;74664;45.620;5.138;2024-02-04T13:53:33;4.50;4.50;2.00
84436;PMS1003;74664;45.620;5.138;2024-02-04T13:56:00;8.00;3.00;2.00
84436;PMS1003;74664;45.620;5.138;2024-02-04T13:58:28;5.75;4.25;3.50
84436;PMS1003;74664;45.620;5.138;2024-02-04T14:00:55;5.00;5.00;4.00
84436;PMS1003;74664;45.620;5.138;2024-02-04T14:03:22;5.75;5.00;4.00
84436;PMS1003;74664;45.620;5.138;2024-02-04T14:05:49;5.00;5.00;5.00
84436;PMS1003;74664;45.620;5.138;2024-02-04T14:08:16;7.00;5.75;4.50
84436;PMS1003;74664;45.620;5.138;2024-02-04T14:10:42;6.50;6.50;4.00
84436;PMS1003;74664;45.620;5.138;2024-02-04T14:13:09;4.50;4.50;3.00
84436;PMS1003;74664;45.620;5.138;2024-02-04T14:15:38;3.00;3.00;2.00
84436;PMS1003;74664;45.620;5.138;2024-02-04T14:18:05;5.00;5.00;4.00
84436;PMS1003;74664;45.620;5.138;2024-02-04T14:20:32;8.25;8.25;7.00
84436;PMS1003;74664;45.620;5.138;2024-02-04T14:22:58;4.75;3.50;2.50
84436;PMS1003;74664;45.620;5.138;2024-02-04T14:25:25;7.00;4.00;3.50